Time;durP1;ratioP1;P1;durP2;ratioP2;P2;SDS_P1;SDS_P2;PMS_P1;PMS_P2;Temp;Humidity;BMP_temperature;BMP_pressure;BME280_temperature;BME280_humidity;BME280_pressure;Samples;Min_cycle;Max_cycle;Signal;HPM_P1;HPM_P2
2024/01/24 00:01:11;;;;;;;0.00;0.00;;;10.60;93.10;;;;;;4967148;28;20058;-77
2024/01/24 00:03:36;;;;;;;0.13;0.13;;;10.70;93.00;;;;;;4968668;28;20055;-76
2024/01/24 00:06:02;;;;;;;0.00;0.00;;;10.70;93.00;;;;;;4970044;28;20043;-76
2024/01/24 00:08:28;;;;;;;0.00;0.00;;;10.70;93.00;;;;;;4969147;28;20113;-76
2024/01/24 00:10:54;;;;;;;0.00;0.00;;;10.70;92.80;;;;;;4963692;28;20185;-76
2024/01/24 00:13:20;;;;;;;0.00;0.00;;;10.70;93.00;;;;;;4969073;28;20173;-76
2024/01/24 00:15:45;;;;;;;0.75;0.75;;;10.80;92.90;;;;;;4968428;28;20516;-76
2024/01/24 00:18:11;;;;;;;0.30;0.30;;;10.80;92.70;;;;;;4969998;28;20093;-77
2024/01/24 00:20:37;;;;;;;0.10;0.10;;;10.80;92.70;;;;;;4965896;28;20055;-77
2024/01/24 00:23:03;;;;;;;0.00;0.00;;;10.80;92.50;;;;;;4963733;28;20075;-77
2024/01/24 00:25:29;;;;;;;2.08;1.98;;;10.80;92.60;;;;;;4969510;28;20109;-78
2024/01/24 00:27:54;;;;;;;0.00;0.00;;;10.80;92.50;;;;;;4969040;28;20101;-78
2024/01/24 00:30:20;;;;;;;0.00;0.00;;;10.70;92.80;;;;;;4967361;28;20062;-76
2024/01/24 00:32:46;;;;;;;2.08;1.75;;;10.70;92.50;;;;;;4953411;28;20472;-77
2024/01/24 00:35:15;;;;;;;0.00;0.00;;;10.70;92.50;;;;;;4951094;28;20583;-77
2024/01/24 00:37:40;;;;;;;0.10;0.10;;;10.80;92.40;;;;;;4969410;28;20162;-77
2024/01/24 00:40:07;;;;;;;0.00;0.00;;;10.70;92.40;;;;;;4967961;28;20133;-78
2024/01/24 00:42:33;;;;;;;0.00;0.00;;;10.80;92.50;;;;;;4967081;28;20058;-77
2024/01/24 00:44:59;;;;;;;0.00;0.00;;;10.70;92.30;;;;;;4968229;28;20049;-78
2024/01/24 00:47:24;;;;;;;0.00;0.00;;;10.80;92.20;;;;;;4967712;28;20169;-77
2024/01/24 00:49:50;;;;;;;15.98;2.40;;;10.70;92.40;;;;;;4968397;28;20101;-77
2024/01/24 00:52:16;;;;;;;0.20;0.20;;;10.70;92.40;;;;;;4967070;28;20492;-76
2024/01/24 00:54:41;;;;;;;1.45;1.35;;;10.80;92.50;;;;;;4977270;28;20062;-76
2024/01/24 00:57:07;;;;;;;0.00;0.00;;;10.80;92.60;;;;;;4969125;28;20043;-77
2024/01/24 00:59:33;;;;;;;0.65;0.65;;;10.70;92.80;;;;;;4966346;28;20050;-77
2024/01/24 01:01:59;;;;;;;1.45;1.35;;;10.70;92.80;;;;;;4966703;28;20046;-78
2024/01/24 01:04:25;;;;;;;0.00;0.00;;;10.80;92.90;;;;;;4968791;28;20057;-77
2024/01/24 01:06:51;;;;;;;2.38;2.17;;;10.80;92.80;;;;;;4983643;28;20051;-76
2024/01/24 01:09:16;;;;;;;0.85;0.85;;;10.80;92.80;;;;;;4967773;28;20061;-77
2024/01/24 01:11:42;;;;;;;10.05;2.83;;;10.80;92.60;;;;;;4966877;28;20050;-76
2024/01/24 01:14:08;;;;;;;0.00;0.00;;;10.80;92.70;;;;;;4967977;28;20078;-77
2024/01/24 01:16:33;;;;;;;0.40;0.40;;;10.80;92.90;;;;;;4966340;28;20039;-78
2024/01/24 01:18:59;;;;;;;0.10;0.10;;;11.00;92.70;;;;;;4964615;28;20050;-77
2024/01/24 01:21:25;;;;;;;0.00;0.00;;;11.00;92.50;;;;;;4976906;28;20058;-74
2024/01/24 01:23:50;;;;;;;0.00;0.00;;;11.00;92.40;;;;;;4968169;28;20122;-75
2024/01/24 01:26:16;;;;;;;0.00;0.00;;;11.00;92.40;;;;;;4960213;28;20049;-75
2024/01/24 01:28:41;;;;;;;0.30;0.30;;;11.10;92.40;;;;;;4978312;28;20550;-75
2024/01/24 01:31:07;;;;;;;1.40;1.30;;;11.10;92.30;;;;;;4974830;28;20046;-76
2024/01/24 01:33:32;;;;;;;0.00;0.00;;;11.10;92.40;;;;;;4967283;28;20038;-76
2024/01/24 01:35:58;;;;;;;0.00;0.00;;;11.20;92.30;;;;;;4984536;28;20042;-75
2024/01/24 01:38:24;;;;;;;0.00;0.00;;;11.20;92.00;;;;;;4971129;28;20416;-74
2024/01/24 01:40:49;;;;;;;0.30;0.30;;;11.30;92.10;;;;;;4968484;28;20051;-76
2024/01/24 01:43:15;;;;;;;0.00;0.00;;;11.30;91.80;;;;;;4971201;28;20460;-76
2024/01/24 01:45:41;;;;;;;0.50;0.50;;;11.40;91.50;;;;;;4968297;28;20049;-76
2024/01/24 01:48:11;;;;;;;0.00;0.00;;;11.40;91.50;;;;;;4968162;28;20408;-75
2024/01/24 01:50:38;;;;;;;0.08;0.08;;;11.30;91.30;;;;;;4966974;28;20050;-76
2024/01/24 01:53:05;;;;;;;0.00;0.00;;;11.40;91.30;;;;;;4955397;28;20058;-75
2024/01/24 01:55:33;;;;;;;0.00;0.00;;;11.40;91.10;;;;;;4959069;28;20047;-76
2024/01/24 01:58:00;;;;;;;0.20;0.20;;;11.40;90.90;;;;;;4975491;28;20519;-76
2024/01/24 02:00:26;;;;;;;0.05;0.05;;;11.50;90.90;;;;;;4966858;28;20125;-76
2024/01/24 02:02:53;;;;;;;0.00;0.00;;;11.50;90.90;;;;;;4980799;28;20050;-74
2024/01/24 02:05:19;;;;;;;0.17;0.17;;;11.50;90.60;;;;;;4969609;28;20058;-74
2024/01/24 02:07:45;;;;;;;0.00;0.00;;;11.40;90.20;;;;;;4966853;28;20043;-74
2024/01/24 02:10:12;;;;;;;0.00;0.00;;;11.40;90.20;;;;;;4966295;28;20054;-75
2024/01/24 02:12:38;;;;;;;0.70;0.70;;;11.40;90.30;;;;;;4969333;28;20094;-75
2024/01/24 02:15:04;;;;;;;0.00;0.00;;;11.30;90.10;;;;;;4969483;28;20055;-74
2024/01/24 02:17:29;;;;;;;0.00;0.00;;;11.30;90.20;;;;;;4970889;28;20046;-76
2024/01/24 02:19:55;;;;;;;0.00;0.00;;;11.30;90.20;;;;;;4966656;28;20557;-75
2024/01/24 02:22:21;;;;;;;1.58;0.60;;;11.30;90.30;;;;;;4971790;28;20101;-74
2024/01/24 02:24:47;;;;;;;0.00;0.00;;;11.20;90.20;;;;;;4962497;28;20126;-74
2024/01/24 02:27:13;;;;;;;3.92;2.70;;;11.20;90.00;;;;;;4951004;28;20050;-74
2024/01/24 02:29:39;;;;;;;0.15;0.15;;;11.20;90.20;;;;;;4965880;28;20047;-74
2024/01/24 02:32:05;;;;;;;1.35;1.25;;;11.10;90.20;;;;;;4970111;28;20093;-74
2024/01/24 02:34:31;;;;;;;0.35;0.35;;;11.10;90.30;;;;;;4970920;28;20055;-75
2024/01/24 02:36:57;;;;;;;0.00;0.00;;;11.10;90.20;;;;;;4972213;28;20522;-76
2024/01/24 02:39:22;;;;;;;0.00;0.00;;;11.00;90.40;;;;;;4975395;28;20927;-75
2024/01/24 02:41:48;;;;;;;0.75;0.55;;;11.00;90.40;;;;;;4970171;28;20049;-75
2024/01/24 02:44:14;;;;;;;0.95;0.95;;;11.00;90.10;;;;;;4971178;28;20065;-74
2024/01/24 02:46:39;;;;;;;1.70;1.33;;;11.00;90.10;;;;;;4970301;28;20063;-75
2024/01/24 02:49:05;;;;;;;1.65;0.93;;;10.90;90.00;;;;;;4965605;28;20523;-75
2024/01/24 02:51:31;;;;;;;0.00;0.00;;;10.80;90.00;;;;;;4967400;28;20043;-74
2024/01/24 02:53:56;;;;;;;0.15;0.15;;;10.90;90.10;;;;;;4970083;28;20058;-74
2024/01/24 02:56:22;;;;;;;0.80;0.68;;;10.80;89.90;;;;;;4966358;28;20055;-74
2024/01/24 02:58:48;;;;;;;0.00;0.00;;;10.70;89.80;;;;;;4968928;28;20043;-75
2024/01/24 03:01:15;;;;;;;0.30;0.30;;;10.70;89.60;;;;;;4969436;28;20078;-74
2024/01/24 03:03:41;;;;;;;3.35;0.90;;;10.70;89.40;;;;;;4969369;28;20059;-74
2024/01/24 03:06:08;;;;;;;0.10;0.10;;;10.80;89.40;;;;;;4969209;28;20461;-74
2024/01/24 03:08:50;;;;;;;0.00;0.00;;;10.70;89.30;;;;;;4984844;28;20038;-74
2024/01/24 03:11:16;;;;;;;0.35;0.35;;;10.80;89.20;;;;;;4968162;28;20098;-74
2024/01/24 03:13:42;;;;;;;0.47;0.47;;;10.70;88.90;;;;;;4980537;28;20057;-75
2024/01/24 03:16:08;;;;;;;0.10;0.10;;;10.70;88.50;;;;;;4969473;28;20046;-74
2024/01/24 03:18:38;;;;;;;0.75;0.45;;;10.70;88.60;;;;;;4953505;28;20051;-74
2024/01/24 03:21:09;;;;;;;0.00;0.00;;;10.60;87.90;;;;;;4965108;28;20039;-74
2024/01/24 03:23:38;;;;;;;0.28;0.28;;;10.70;88.00;;;;;;4971120;28;20054;-74
2024/01/24 03:26:04;;;;;;;0.10;0.10;;;10.70;87.70;;;;;;4969499;28;20420;-74
2024/01/24 03:28:30;;;;;;;0.08;0.08;;;10.70;87.90;;;;;;4971063;28;20070;-74
2024/01/24 03:30:55;;;;;;;0.00;0.00;;;10.70;88.40;;;;;;4968992;28;20615;-74
2024/01/24 03:33:21;;;;;;;0.10;0.10;;;10.70;88.50;;;;;;4970086;28;20059;-74
2024/01/24 03:35:47;;;;;;;0.05;0.05;;;10.80;88.70;;;;;;4968799;28;20121;-74
2024/01/24 03:38:13;;;;;;;0.00;0.00;;;10.80;88.60;;;;;;4969577;28;20138;-73
2024/01/24 03:40:39;;;;;;;0.05;0.05;;;10.60;88.20;;;;;;4968517;28;20045;-74
2024/01/24 03:43:05;;;;;;;0.52;0.52;;;10.60;88.30;;;;;;4970260;28;20042;-73
2024/01/24 03:45:31;;;;;;;0.10;0.10;;;10.60;88.00;;;;;;4970595;28;20542;-74
2024/01/24 03:47:57;;;;;;;0.00;0.00;;;10.60;87.50;;;;;;4969321;28;20085;-74
2024/01/24 03:50:22;;;;;;;0.20;0.20;;;10.60;86.90;;;;;;4967835;28;20070;-74
2024/01/24 03:52:48;;;;;;;0.00;0.00;;;10.80;86.40;;;;;;4969341;28;20105;-74
2024/01/24 03:55:14;;;;;;;0.10;0.10;;;10.70;85.60;;;;;;4968814;28;20047;-74
2024/01/24 03:57:40;;;;;;;0.40;0.40;;;10.80;85.10;;;;;;4965219;28;20105;-74
2024/01/24 04:00:06;;;;;;;0.85;0.85;;;10.90;85.20;;;;;;4968338;28;20114;-74
2024/01/24 04:02:32;;;;;;;0.00;0.00;;;10.80;84.80;;;;;;4968879;28;20054;-74
2024/01/24 04:04:57;;;;;;;0.00;0.00;;;10.90;84.30;;;;;;4968655;28;20073;-75
2024/01/24 04:07:23;;;;;;;0.13;0.13;;;10.90;83.70;;;;;;4968312;28;20374;-74
2024/01/24 04:09:49;;;;;;;0.00;0.00;;;10.90;83.40;;;;;;4957011;28;20057;-74
2024/01/24 04:12:15;;;;;;;0.10;0.10;;;10.90;83.00;;;;;;4966234;28;20063;-75
2024/01/24 04:14:40;;;;;;;0.10;0.10;;;11.00;82.80;;;;;;4983415;28;20165;-74
2024/01/24 04:17:06;;;;;;;1.23;1.17;;;11.00;82.90;;;;;;4970211;28;20137;-74
2024/01/24 04:19:32;;;;;;;0.10;0.10;;;10.90;83.30;;;;;;4968802;28;20428;-75
2024/01/24 04:21:57;;;;;;;0.00;0.00;;;10.90;84.30;;;;;;4966658;28;20059;-75
2024/01/24 04:24:23;;;;;;;4.10;3.20;;;10.80;84.90;;;;;;4965827;28;20478;-74
2024/01/24 04:26:48;;;;;;;0.00;0.00;;;10.70;85.40;;;;;;4968664;28;20134;-75
2024/01/24 04:29:16;;;;;;;0.80;0.73;;;10.60;85.70;;;;;;4968034;28;20053;-75
2024/01/24 04:31:42;;;;;;;0.00;0.00;;;10.50;85.80;;;;;;4969500;28;20054;-74
2024/01/24 04:34:07;;;;;;;0.22;0.22;;;10.40;85.70;;;;;;4968909;28;20046;-74
2024/01/24 04:36:33;;;;;;;2.65;2.47;;;10.40;85.50;;;;;;4974442;28;20050;-76
2024/01/24 04:38:59;;;;;;;0.22;0.22;;;10.40;85.30;;;;;;4963688;28;20097;-78
2024/01/24 04:41:25;;;;;;;0.00;0.00;;;10.40;84.80;;;;;;4952916;28;20047;-76
2024/01/24 04:43:51;;;;;;;1.33;1.25;;;10.30;84.70;;;;;;4962546;28;20816;-77
2024/01/24 04:46:17;;;;;;;0.80;0.50;;;10.30;84.30;;;;;;4965891;28;20500;-75
2024/01/24 04:48:44;;;;;;;0.10;0.10;;;10.30;84.00;;;;;;4969643;28;20042;-77
2024/01/24 04:51:13;;;;;;;3.60;1.08;;;10.30;83.70;;;;;;4983742;28;20047;-77
2024/01/24 04:53:39;;;;;;;0.00;0.00;;;10.40;83.30;;;;;;4968571;28;20068;-76
2024/01/24 04:56:08;;;;;;;4.68;4.28;;;10.50;82.70;;;;;;4984162;28;20047;-76
2024/01/24 04:58:36;;;;;;;0.10;0.10;;;10.50;82.40;;;;;;4965691;28;20046;-76
2024/01/24 05:01:03;;;;;;;0.40;0.40;;;10.40;82.40;;;;;;4951964;28;20522;-76
2024/01/24 05:03:28;;;;;;;16.45;1.13;;;10.50;82.60;;;;;;4968632;28;20047;-76
2024/01/24 05:05:54;;;;;;;2.30;2.20;;;10.40;82.20;;;;;;4963797;28;20046;-75
2024/01/24 05:08:20;;;;;;;1.95;1.85;;;10.40;82.30;;;;;;4952084;28;20160;-75
2024/01/24 05:10:46;;;;;;;0.17;0.17;;;10.40;82.30;;;;;;4959969;28;20047;-78
2024/01/24 05:13:12;;;;;;;0.20;0.20;;;10.40;82.10;;;;;;4949297;28;20108;-74
2024/01/24 05:15:38;;;;;;;0.30;0.30;;;10.40;82.10;;;;;;4956259;28;20054;-74
2024/01/24 05:18:03;;;;;;;0.43;0.43;;;10.40;81.90;;;;;;4960287;28;20046;-73
2024/01/24 05:20:29;;;;;;;0.10;0.10;;;10.40;81.30;;;;;;4958468;28;20500;-73
2024/01/24 05:22:55;;;;;;;0.22;0.22;;;10.30;81.50;;;;;;4969512;28;20448;-73
2024/01/24 05:25:21;;;;;;;0.20;0.20;;;10.30;81.50;;;;;;4969201;28;20055;-72
2024/01/24 05:27:47;;;;;;;0.05;0.05;;;10.30;81.20;;;;;;4968468;28;20050;-73
2024/01/24 05:30:13;;;;;;;0.52;0.52;;;10.30;80.80;;;;;;4968023;28;20047;-72
2024/01/24 05:32:39;;;;;;;0.65;0.57;;;10.20;80.60;;;;;;4965665;28;20051;-76
2024/01/24 05:35:05;;;;;;;0.00;0.00;;;10.30;80.70;;;;;;4966146;28;20062;-74
2024/01/24 05:37:31;;;;;;;0.10;0.10;;;10.10;80.20;;;;;;4963034;28;20492;-75
2024/01/24 05:39:56;;;;;;;0.32;0.32;;;10.10;80.10;;;;;;4967669;28;20034;-73
2024/01/24 05:42:22;;;;;;;1.13;1.05;;;10.10;79.90;;;;;;4966111;28;20043;-73
2024/01/24 05:44:49;;;;;;;0.00;0.00;;;10.10;79.80;;;;;;4965820;28;20043;-73
2024/01/24 05:47:15;;;;;;;0.00;0.00;;;10.10;79.20;;;;;;4960915;28;20501;-73
2024/01/24 05:49:41;;;;;;;0.00;0.00;;;10.10;78.70;;;;;;4966956;28;20500;-74
2024/01/24 05:52:07;;;;;;;3.83;2.70;;;10.10;79.00;;;;;;4967308;28;20043;-74
2024/01/24 05:54:33;;;;;;;0.00;0.00;;;10.10;79.60;;;;;;4966793;28;20113;-74
2024/01/24 05:56:59;;;;;;;5.05;4.07;;;10.00;79.80;;;;;;4966415;28;20074;-74
2024/01/24 05:59:24;;;;;;;0.50;0.50;;;10.00;80.10;;;;;;4967962;28;20133;-74
2024/01/24 06:01:50;;;;;;;0.10;0.10;;;10.10;80.30;;;;;;4966710;28;20137;-73
2024/01/24 06:04:16;;;;;;;0.50;0.50;;;10.10;79.70;;;;;;4967707;28;20043;-74
2024/01/24 06:06:42;;;;;;;0.00;0.00;;;10.10;79.90;;;;;;4966152;28;20169;-73
2024/01/24 06:09:08;;;;;;;1.75;1.45;;;10.00;79.90;;;;;;4966066;28;20039;-74
2024/01/24 06:11:33;;;;;;;10.75;1.63;;;10.00;79.40;;;;;;4966868;28;20050;-74
2024/01/24 06:13:59;;;;;;;0.77;0.77;;;9.90;79.30;;;;;;4966711;28;20401;-73
2024/01/24 06:16:24;;;;;;;0.70;0.70;;;9.90;79.00;;;;;;4967872;28;20050;-73
2024/01/24 06:18:50;;;;;;;0.00;0.00;;;9.90;78.50;;;;;;4968160;28;20082;-73
2024/01/24 06:21:16;;;;;;;3.42;1.38;;;9.80;78.50;;;;;;4966873;28;20138;-73
2024/01/24 06:23:41;;;;;;;0.15;0.15;;;9.80;78.10;;;;;;4965688;28;20053;-73
2024/01/24 06:26:07;;;;;;;0.63;0.63;;;9.80;78.00;;;;;;4966486;28;20046;-74
2024/01/24 06:28:33;;;;;;;0.00;0.00;;;9.80;77.40;;;;;;4966754;28;20059;-73
2024/01/24 06:30:59;;;;;;;37.33;5.47;;;9.80;77.10;;;;;;4955150;28;20047;-73
2024/01/24 06:33:25;;;;;;;0.15;0.15;;;9.80;76.90;;;;;;4967445;28;20059;-73
2024/01/24 06:35:51;;;;;;;3.20;1.95;;;9.90;76.80;;;;;;4968077;28;20042;-73
2024/01/24 06:38:16;;;;;;;0.30;0.30;;;9.80;76.50;;;;;;4967349;28;20424;-72
2024/01/24 06:40:42;;;;;;;15.98;1.40;;;9.70;76.60;;;;;;4966389;28;20054;-71
2024/01/24 06:43:08;;;;;;;0.68;0.68;;;9.90;76.50;;;;;;4966226;28;20070;-72
2024/01/24 06:45:33;;;;;;;3.33;2.17;;;9.70;76.80;;;;;;4966460;28;20054;-72
2024/01/24 06:47:59;;;;;;;0.25;0.25;;;9.80;76.80;;;;;;4966422;28;20043;-71
2024/01/24 06:50:25;;;;;;;0.52;0.52;;;9.90;76.30;;;;;;4966045;28;20119;-71
2024/01/24 06:52:50;;;;;;;0.80;0.73;;;9.80;76.90;;;;;;4966357;28;20137;-71
2024/01/24 06:55:17;;;;;;;0.22;0.22;;;9.80;76.50;;;;;;4964793;28;20047;-72
2024/01/24 06:57:44;;;;;;;0.00;0.00;;;9.70;76.30;;;;;;4966851;28;20101;-72
2024/01/24 07:00:10;;;;;;;0.75;0.75;;;9.80;76.40;;;;;;4968771;28;20050;-71
2024/01/24 07:02:36;;;;;;;2.08;0.95;;;9.80;76.50;;;;;;4970749;28;20405;-71
2024/01/24 07:05:03;;;;;;;0.00;0.00;;;9.80;76.30;;;;;;4969014;28;20050;-71
2024/01/24 07:07:29;;;;;;;0.00;0.00;;;9.80;76.80;;;;;;4969881;28;20051;-71
2024/01/24 07:09:55;;;;;;;0.90;0.90;;;9.70;77.00;;;;;;4966129;28;20049;-71
2024/01/24 07:12:20;;;;;;;0.08;0.08;;;9.70;77.40;;;;;;4968600;28;20496;-71
2024/01/24 07:14:48;;;;;;;4.57;2.92;;;9.70;77.50;;;;;;4968399;28;20059;-71
2024/01/24 07:17:14;;;;;;;0.32;0.32;;;9.70;78.10;;;;;;4970373;28;20119;-70
2024/01/24 07:19:40;;;;;;;1.00;0.98;;;9.70;78.40;;;;;;4962859;28;20043;-71
2024/01/24 07:22:06;;;;;;;0.00;0.00;;;9.70;79.00;;;;;;4970923;28;20085;-67
2024/01/24 07:24:32;;;;;;;0.38;0.38;;;9.60;79.30;;;;;;4968888;28;20038;-70
2024/01/24 07:26:58;;;;;;;0.55;0.55;;;9.60;79.90;;;;;;4970696;28;20059;-70
2024/01/24 07:29:24;;;;;;;0.40;0.40;;;9.60;79.90;;;;;;4970899;28;20042;-70
2024/01/24 07:31:49;;;;;;;0.00;0.00;;;9.70;79.90;;;;;;4980350;28;20481;-70
2024/01/24 07:34:16;;;;;;;2.47;0.52;;;9.70;79.80;;;;;;4972718;28;20125;-70
2024/01/24 07:36:41;;;;;;;5.93;2.38;;;9.60;79.80;;;;;;4985355;28;20053;-70
2024/01/24 07:39:07;;;;;;;0.28;0.28;;;9.60;80.10;;;;;;4971736;28;20404;-70
2024/01/24 07:41:34;;;;;;;0.90;0.90;;;9.50;80.20;;;;;;4970098;28;20050;-70
2024/01/24 07:44:00;;;;;;;2.25;0.82;;;9.70;80.00;;;;;;4963430;28;20043;-69
2024/01/24 07:46:27;;;;;;;0.00;0.00;;;9.60;79.90;;;;;;4952478;28;20058;-70
2024/01/24 07:48:53;;;;;;;0.25;0.25;;;9.60;79.70;;;;;;4961661;28;20524;-71
2024/01/24 07:51:20;;;;;;;0.00;0.00;;;9.60;79.90;;;;;;4970353;28;20058;-71
2024/01/24 07:53:47;;;;;;;0.00;0.00;;;9.60;79.60;;;;;;4971255;28;20527;-70
2024/01/24 07:56:13;;;;;;;3.75;1.85;;;9.70;79.20;;;;;;4980009;28;20042;-71
2024/01/24 07:58:42;;;;;;;0.00;0.00;;;9.60;79.50;;;;;;4990260;28;20042;-70
2024/01/24 08:01:08;;;;;;;0.03;0.03;;;9.60;79.70;;;;;;4988582;28;20046;-70
2024/01/24 08:03:34;;;;;;;0.68;0.52;;;9.50;79.60;;;;;;4988854;28;20050;-70
2024/01/24 08:06:00;;;;;;;0.05;0.05;;;9.50;79.50;;;;;;4988611;28;20381;-70
2024/01/24 08:08:26;;;;;;;0.00;0.00;;;9.60;79.30;;;;;;4987573;28;20053;-70
2024/01/24 08:10:52;;;;;;;0.13;0.13;;;9.60;79.00;;;;;;4975990;28;20158;-70
2024/01/24 08:13:18;;;;;;;60.05;1.65;;;9.50;79.50;;;;;;4968770;28;20564;-70
2024/01/24 08:15:46;;;;;;;0.00;0.00;;;9.50;79.40;;;;;;4965344;28;20049;-70
2024/01/24 08:18:12;;;;;;;1.10;1.10;;;9.60;79.10;;;;;;4969869;28;20043;-70
2024/01/24 08:20:38;;;;;;;0.20;0.20;;;9.50;79.10;;;;;;4968234;28;20058;-69
2024/01/24 08:23:04;;;;;;;0.68;0.68;;;9.50;79.40;;;;;;4969542;28;20043;-71
2024/01/24 08:25:29;;;;;;;0.80;0.80;;;9.30;79.30;;;;;;4969234;28;20050;-71
2024/01/24 08:27:55;;;;;;;0.10;0.10;;;9.40;79.40;;;;;;4968229;28;20051;-71
2024/01/24 08:30:21;;;;;;;3.13;0.90;;;9.40;79.30;;;;;;4969683;28;20050;-71
2024/01/24 08:32:46;;;;;;;0.10;0.10;;;9.40;79.40;;;;;;4969506;28;20385;-70
2024/01/24 08:35:13;;;;;;;6.35;3.63;;;9.40;79.30;;;;;;4969344;28;20046;-71
2024/01/24 08:37:41;;;;;;;1.05;1.05;;;9.40;79.50;;;;;;4969401;28;20084;-71
2024/01/24 08:40:08;;;;;;;37.85;2.10;;;9.50;79.50;;;;;;4969464;28;20078;-71
2024/01/24 08:42:34;;;;;;;0.00;0.00;;;9.40;79.60;;;;;;4969313;28;20054;-71
2024/01/24 08:45:00;;;;;;;0.10;0.10;;;9.40;79.70;;;;;;4968625;28;20035;-71
2024/01/24 08:47:25;;;;;;;6.97;0.77;;;9.40;79.60;;;;;;4969290;28;20047;-71
2024/01/24 08:49:53;;;;;;;3.35;1.60;;;9.30;80.20;;;;;;4969543;28;20035;-71
2024/01/24 08:52:19;;;;;;;0.00;0.00;;;9.30;80.30;;;;;;4969173;28;20038;-71
2024/01/24 08:54:44;;;;;;;0.68;0.57;;;9.30;79.90;;;;;;4969369;28;20129;-71
2024/01/24 08:57:10;;;;;;;0.82;0.82;;;9.30;79.80;;;;;;4968258;28;20142;-71
2024/01/24 08:59:39;;;;;;;2.10;1.58;;;9.40;79.90;;;;;;4968075;28;20051;-71
2024/01/24 09:02:07;;;;;;;1.08;1.08;;;9.40;79.60;;;;;;4968686;28;20432;-70
2024/01/24 09:04:33;;;;;;;0.20;0.20;;;9.50;79.40;;;;;;4967753;28;20065;-70
2024/01/24 09:06:58;;;;;;;20.88;2.42;;;9.40;79.70;;;;;;4968297;28;20039;-70
2024/01/24 09:09:25;;;;;;;0.30;0.30;;;9.50;79.60;;;;;;4968796;28;20499;-70
2024/01/24 09:11:51;;;;;;;0.57;0.57;;;9.50;79.40;;;;;;4985617;28;20058;-71
2024/01/24 09:14:16;;;;;;;0.25;0.25;;;9.50;79.60;;;;;;4968801;28;20512;-71
2024/01/24 09:16:42;;;;;;;0.10;0.10;;;9.50;79.40;;;;;;4971297;28;20452;-70
2024/01/24 09:19:08;;;;;;;0.00;0.00;;;9.50;79.50;;;;;;4982665;28;20051;-71
2024/01/24 09:21:33;;;;;;;1.65;1.55;;;9.60;79.60;;;;;;4974440;28;20047;-70
2024/01/24 09:23:59;;;;;;;0.57;0.57;;;9.60;79.80;;;;;;4968687;28;20049;-70
2024/01/24 09:26:25;;;;;;;3.40;1.98;;;9.50;80.00;;;;;;4971578;28;20049;-71
2024/01/24 09:28:51;;;;;;;0.08;0.08;;;9.50;79.90;;;;;;4988153;28;20466;-70
2024/01/24 09:31:17;;;;;;;0.30;0.30;;;9.50;79.90;;;;;;4987855;28;20046;-71
2024/01/24 09:33:43;;;;;;;4.10;1.45;;;9.60;79.60;;;;;;4988327;28;20042;-71
2024/01/24 09:36:09;;;;;;;0.10;0.10;;;9.60;79.40;;;;;;4973581;28;20097;-71
2024/01/24 09:38:35;;;;;;;0.05;0.05;;;9.60;79.20;;;;;;4971642;28;20042;-71
2024/01/24 09:41:12;;;;;;;0.77;0.77;;;9.60;79.20;;;;;;4971483;28;20054;-70
2024/01/24 09:43:39;;;;;;;0.15;0.15;;;9.70;79.50;;;;;;4968614;28;20051;-71
2024/01/24 09:46:12;;;;;;;2.90;2.70;;;9.70;79.50;;;;;;4967452;28;20077;-71
2024/01/24 09:48:38;;;;;;;0.20;0.20;;;9.70;78.90;;;;;;4968690;28;20110;-72
2024/01/24 09:51:04;;;;;;;4.30;2.70;;;9.70;79.10;;;;;;4968402;28;20610;-71
2024/01/24 09:53:32;;;;;;;0.00;0.00;;;9.70;79.10;;;;;;4968246;28;20039;-70
2024/01/24 09:55:59;;;;;;;4.43;2.67;;;9.80;79.00;;;;;;4968019;28;20105;-70
2024/01/24 09:58:25;;;;;;;0.38;0.38;;;9.80;78.70;;;;;;4966620;28;20046;-69
2024/01/24 10:00:52;;;;;;;5.57;2.08;;;9.70;79.40;;;;;;4967091;28;20057;-70
2024/01/24 10:03:18;;;;;;;0.93;0.88;;;9.70;79.20;;;;;;4966821;28;20117;-69
2024/01/24 10:05:46;;;;;;;0.80;0.80;;;9.80;79.00;;;;;;4968434;28;20461;-69
2024/01/24 10:08:11;;;;;;;2.50;2.13;;;9.80;78.60;;;;;;4967862;28;20038;-69
2024/01/24 10:10:37;;;;;;;0.10;0.10;;;9.80;79.00;;;;;;4968206;28;20051;-70
2024/01/24 10:13:04;;;;;;;0.00;0.00;;;9.80;78.70;;;;;;4972787;28;20508;-70
2024/01/24 10:15:30;;;;;;;0.00;0.00;;;9.90;78.80;;;;;;4973930;28;20050;-70
2024/01/24 10:17:56;;;;;;;0.00;0.00;;;9.80;78.60;;;;;;4977979;28;20463;-69
2024/01/24 10:20:21;;;;;;;0.00;0.00;;;9.90;78.80;;;;;;4968199;28;20050;-70
2024/01/24 10:22:47;;;;;;;0.80;0.75;;;9.90;78.50;;;;;;4968313;28;20078;-70
2024/01/24 10:25:13;;;;;;;0.82;0.70;;;9.90;78.90;;;;;;4967881;28;20039;-70
2024/01/24 10:27:39;;;;;;;0.10;0.10;;;9.90;78.70;;;;;;4982750;28;20460;-71
2024/01/24 10:30:10;;;;;;;0.00;0.00;;;9.80;78.40;;;;;;4966865;28;20046;-72
2024/01/24 10:32:37;;;;;;;0.10;0.10;;;9.80;78.50;;;;;;4968474;28;20059;-72
2024/01/24 10:35:06;;;;;;;0.28;0.28;;;9.90;78.60;;;;;;4971860;28;20061;-71
2024/01/24 10:37:32;;;;;;;0.68;0.68;;;9.90;78.70;;;;;;4962979;28;20055;-71
2024/01/24 10:40:08;;;;;;;1.10;1.05;;;9.90;78.20;;;;;;4964063;28;20035;-71
2024/01/24 10:42:39;;;;;;;0.10;0.10;;;10.00;78.20;;;;;;4970505;28;20082;-72
2024/01/24 10:45:06;;;;;;;1.30;1.23;;;9.90;78.30;;;;;;4975285;28;20043;-71
2024/01/24 10:47:33;;;;;;;0.00;0.00;;;9.90;78.40;;;;;;4978886;28;20046;-71
2024/01/24 10:50:03;;;;;;;0.70;0.70;;;10.00;78.40;;;;;;4970993;28;20070;-72
2024/01/24 10:52:30;;;;;;;0.00;0.00;;;9.90;78.40;;;;;;4971098;28;20447;-72
2024/01/24 10:55:03;;;;;;;0.05;0.05;;;9.90;78.50;;;;;;4985844;28;20161;-72
2024/01/24 10:57:31;;;;;;;0.45;0.45;;;9.90;78.10;;;;;;4970362;28;20509;-72
2024/01/24 10:59:57;;;;;;;0.60;0.60;;;9.90;78.30;;;;;;4971028;28;20097;-71
2024/01/24 11:02:23;;;;;;;1.63;0.68;;;9.90;78.50;;;;;;4970973;28;20439;-72
2024/01/24 11:04:51;;;;;;;0.50;0.50;;;9.90;78.10;;;;;;4969449;28;20404;-71
2024/01/24 11:07:30;;;;;;;1.40;1.35;;;9.90;78.30;;;;;;4970850;28;20483;-72
2024/01/24 11:10:20;;;;;;;0.10;0.10;;;9.90;78.00;;;;;;4971186;28;20164;-72
2024/01/24 11:12:46;;;;;;;0.13;0.13;;;9.90;78.00;;;;;;4960538;28;20625;-72
2024/01/24 11:15:13;;;;;;;6.68;2.95;;;9.90;77.80;;;;;;4977529;28;20046;-71
2024/01/24 11:17:41;;;;;;;0.57;0.57;;;10.00;77.90;;;;;;4978277;28;20054;-71
2024/01/24 11:20:09;;;;;;;0.88;0.88;;;10.00;77.70;;;;;;4970625;28;20050;-72
2024/01/24 11:22:36;;;;;;;7.68;2.72;;;10.00;77.20;;;;;;4970141;28;20126;-72
2024/01/24 11:25:04;;;;;;;0.10;0.10;;;10.10;77.20;;;;;;4974702;28;20064;-72
2024/01/24 11:27:33;;;;;;;0.22;0.22;;;10.10;77.00;;;;;;4981274;28;20125;-72
2024/01/24 11:30:03;;;;;;;0.10;0.10;;;10.00;76.90;;;;;;4982131;28;20042;-72
2024/01/24 11:32:47;;;;;;;0.50;0.50;;;10.10;76.80;;;;;;4978417;28;20086;-72
2024/01/24 11:35:28;;;;;;;0.03;0.03;;;10.10;76.60;;;;;;4978806;28;20310;-71
2024/01/24 11:37:55;;;;;;;10.75;3.28;;;10.10;76.40;;;;;;4976446;28;20496;-72
2024/01/24 11:40:23;;;;;;;0.05;0.05;;;10.10;76.00;;;;;;4969200;28;20046;-71
2024/01/24 11:42:53;;;;;;;5.53;1.55;;;10.10;76.00;;;;;;4949846;28;20171;-71
2024/01/24 11:45:23;;;;;;;0.00;0.00;;;10.10;76.30;;;;;;4949594;28;20138;-72
2024/01/24 11:47:50;;;;;;;6.32;2.05;;;10.10;76.30;;;;;;4961065;28;20145;-71
2024/01/24 11:50:16;;;;;;;4.47;3.83;;;10.10;76.50;;;;;;4970438;28;20055;-72
2024/01/24 11:52:42;;;;;;;0.63;0.63;;;10.10;76.10;;;;;;4969998;28;20054;-72
2024/01/24 11:55:08;;;;;;;0.40;0.40;;;10.10;76.60;;;;;;4963808;28;20105;-72
2024/01/24 11:57:34;;;;;;;0.20;0.20;;;10.10;76.50;;;;;;4985045;28;20057;-72
2024/01/24 12:00:00;;;;;;;0.20;0.20;;;10.10;76.60;;;;;;4970144;28;20051;-71
2024/01/24 12:02:25;;;;;;;0.08;0.08;;;10.10;76.50;;;;;;4970139;28;20526;-71
2024/01/24 12:04:52;;;;;;;0.45;0.45;;;10.20;75.80;;;;;;4963165;28;20078;-71
2024/01/24 12:07:18;;;;;;;3.58;3.10;;;10.10;75.90;;;;;;4969912;28;20085;-71
2024/01/24 12:09:44;;;;;;;0.38;0.38;;;10.10;76.10;;;;;;4970345;28;20050;-71
2024/01/24 12:12:11;;;;;;;1.85;1.75;;;10.10;75.80;;;;;;4968549;28;20113;-70
2024/01/24 12:14:38;;;;;;;0.08;0.08;;;10.10;76.00;;;;;;4968720;28;20047;-70
2024/01/24 12:17:03;;;;;;;6.13;2.88;;;10.10;75.90;;;;;;4970345;28;20042;-70
2024/01/24 12:19:30;;;;;;;0.00;0.00;;;10.10;76.30;;;;;;4969460;28;20046;-70
2024/01/24 12:21:57;;;;;;;0.22;0.22;;;10.10;76.00;;;;;;4984268;28;20112;-70
2024/01/24 12:24:23;;;;;;;9.10;2.65;;;10.00;76.30;;;;;;4978923;28;20086;-71
2024/01/24 12:26:48;;;;;;;6.78;3.08;;;10.10;75.90;;;;;;4969666;28;20902;-70
2024/01/24 12:29:14;;;;;;;0.00;0.00;;;10.00;76.20;;;;;;4968539;28;20050;-70
2024/01/24 12:31:45;;;;;;;0.35;0.35;;;10.10;76.10;;;;;;4969869;28;20668;-70
2024/01/24 12:34:14;;;;;;;7.63;3.03;;;10.10;76.10;;;;;;4968117;28;20126;-70
2024/01/24 12:36:43;;;;;;;0.00;0.00;;;10.10;75.70;;;;;;4967114;28;20043;-71
2024/01/24 12:39:09;;;;;;;0.00;0.00;;;10.10;76.30;;;;;;4967845;28;20134;-72
2024/01/24 12:41:35;;;;;;;2.15;1.95;;;10.10;75.90;;;;;;4969001;28;20039;-72
2024/01/24 12:44:01;;;;;;;0.10;0.10;;;10.10;76.10;;;;;;4969483;28;20652;-68
2024/01/24 12:46:27;;;;;;;0.65;0.65;;;10.00;76.10;;;;;;4968096;28;20101;-69